This is the latest recevied weather packets stored in our database for station/object WD4IXD-WX. If no packets are shown the sender has not sent any weather packets the latest 10 day(s).
| Time | Temp. | Humidity | Pressure | Rain* | Wind** | Luminosity | Snow |
|---|---|---|---|---|---|---|---|
| 1777411804 | 7.22° C | 27% | 1018.6 hPa | 0 mm | - | 904 W/m² | - |
| 1777411503 | 7.22° C | 28% | 1018.6 hPa | 0 mm | - | 905 W/m² | - |
| 1777411203 | 6.67° C | 29% | 1018.6 hPa | 0 mm | - | 323 W/m² | - |
| 1777410903 | 6.67° C | 30% | 1018.6 hPa | 0 mm | - | 988 W/m² | - |
| 1777410603 | 7.22° C | 31% | 1018.6 hPa | 0 mm | - | 983 W/m² | - |
| 1777410304 | 6.67° C | 33% | 1018.6 hPa | 0 mm | - | 1030 W/m² | - |
| 1777410004 | 7.22° C | 33% | 1018.6 hPa | 0 mm | - | 1049 W/m² | - |
| 1777409704 | 6.67° C | 35% | 1018.5 hPa | 0 mm | - | 988 W/m² | - |
| 1777409404 | 6.11° C | 35% | 1018.6 hPa | 0 mm | - | 278 W/m² | - |
| 1777409104 | 6.67° C | 34% | 1018.7 hPa | 0 mm | - | 190 W/m² | - |
| 1777408804 | 6.67° C | 32% | 1018.6 hPa | 0 mm | - | 983 W/m² | - |
| 1777408503 | 6.67° C | 35% | 1018.7 hPa | 0 mm | - | 1016 W/m² | - |
| 1777408204 | 6.11° C | 34% | 1018.7 hPa | 0 mm | - | 1034 W/m² | - |
| 1777407904 | 6.67° C | 32% | 1018.6 hPa | 0 mm | - | 216 W/m² | - |
| 1777407604 | 6.11° C | 33% | 1018.5 hPa | 0 mm | - | 1060 W/m² | - |
| 1777407303 | 6.67° C | 31% | 1018.5 hPa | 0 mm | - | 972 W/m² | - |
| 1777407003 | 6.67° C | 31% | 1018.5 hPa | 0 mm | - | 195 W/m² | - |
| 1777406704 | 6.67° C | 29% | 1018.4 hPa | 0 mm | - | 997 W/m² | - |
| 1777406404 | 6.11° C | 32% | 1018.5 hPa | 0 mm | - | 1037 W/m² | - |
| 1777406104 | 6.11° C | 32% | 1018.5 hPa | 0 mm | - | 998 W/m² | - |
| 1777405803 | 6.11° C | 34% | 1018.5 hPa | 0 mm | - | 1056 W/m² | - |
| 1777405504 | 5.56° C | 36% | 1018.5 hPa | 0 mm | - | 1072 W/m² | - |
| 1777405204 | 6.11° C | 34% | 1018.5 hPa | 0 mm | - | 415 W/m² | - |
| 1777404903 | 6.11° C | 34% | 1018.4 hPa | 0 mm | - | 1222 W/m² | - |
| 1777404603 | 5.56° C | 34% | 1018.4 hPa | 0 mm | - | 274 W/m² | - |
* Rain latest hour (hover to see other rain measurements)
** Current wind speed in m/s (hover to see current wind gust speed)